Time;durP1;ratioP1;P1;durP2;ratioP2;P2;SDS_P1;SDS_P2;PMS_P1;PMS_P2;Temp;Humidity;BMP_temperature;BMP_pressure;BME280_temperature;BME280_humidity;BME280_pressure;Samples;Min_cycle;Max_cycle;Signal;HPM_P1;HPM_P2
2021/04/15 00:00:36;;;;;;;5.03;3.43;;;22.20;48.50;;;;;;5070979;28;20413;-84
2021/04/15 00:03:06;;;;;;;4.40;2.77;;;22.20;48.50;;;;;;5088917;28;20395;-84
2021/04/15 00:05:33;;;;;;;4.10;2.83;;;22.20;48.50;;;;;;5071013;28;20424;-83
2021/04/15 00:07:59;;;;;;;3.70;2.57;;;22.20;48.50;;;;;;5088394;28;20408;-84
2021/04/15 00:10:32;;;;;;;5.00;3.20;;;22.20;48.50;;;;;;5088122;28;20401;-84
2021/04/15 00:13:00;;;;;;;3.37;2.57;;;22.20;48.50;;;;;;5088643;28;20397;-84
2021/04/15 00:15:27;;;;;;;4.27;2.77;;;22.20;48.50;;;;;;5070812;28;20827;-84
2021/04/15 00:17:53;;;;;;;3.63;2.40;;;22.10;48.40;;;;;;5041841;28;20982;-83
2021/04/15 00:20:20;;;;;;;3.30;2.73;;;22.20;48.50;;;;;;5067537;28;20417;-83
2021/04/15 00:22:46;;;;;;;3.73;2.73;;;22.20;48.50;;;;;;5049330;28;20418;-84
2021/04/15 00:25:12;;;;;;;3.57;2.93;;;22.20;48.40;;;;;;5066943;28;20497;-83
2021/04/15 00:27:38;;;;;;;3.17;2.67;;;22.20;48.50;;;;;;5081251;28;20527;-84
2021/04/15 00:30:07;;;;;;;3.50;2.90;;;22.20;48.50;;;;;;5069498;28;20569;-84
2021/04/15 00:32:33;;;;;;;4.63;3.60;;;22.10;48.50;;;;;;5067210;28;20174;-84
2021/04/15 00:34:58;;;;;;;3.47;2.83;;;22.10;48.50;;;;;;5073749;28;20405;-84
2021/04/15 00:37:24;;;;;;;3.67;3.00;;;22.20;48.50;;;;;;5082061;28;20209;-84
2021/04/15 00:39:51;;;;;;;3.00;2.60;;;22.10;48.40;;;;;;5060453;28;20205;-84
2021/04/15 00:42:17;;;;;;;3.20;2.90;;;22.10;48.40;;;;;;5082668;28;20234;-84
2021/04/15 00:44:43;;;;;;;3.30;2.57;;;22.10;48.40;;;;;;5082062;28;20420;-84
2021/04/15 00:47:23;;;;;;;3.43;2.60;;;22.10;48.40;;;;;;5079489;28;20328;-84
2021/04/15 00:49:58;;;;;;;3.60;2.77;;;22.10;48.40;;;;;;5081459;28;20190;-83
2021/04/15 00:52:32;;;;;;;3.30;2.63;;;22.10;48.50;;;;;;5069606;28;20481;-83
2021/04/15 00:54:59;;;;;;;4.43;2.93;;;22.10;48.50;;;;;;5061906;28;20432;-83
2021/04/15 00:57:33;;;;;;;3.23;2.27;;;22.10;48.60;;;;;;5058908;28;20433;-84
2021/04/15 00:59:59;;;;;;;6.13;3.60;;;22.10;48.50;;;;;;5059174;28;20423;-83
2021/04/15 01:02:30;;;;;;;3.90;2.63;;;22.10;48.60;;;;;;5074757;28;20777;-84
2021/04/15 01:04:59;;;;;;;2.60;2.30;;;22.10;48.60;;;;;;5087201;28;20413;-84
2021/04/15 01:07:25;;;;;;;4.00;2.50;;;22.10;48.50;;;;;;5070604;28;20482;-84
2021/04/15 01:09:53;;;;;;;3.97;2.60;;;22.10;48.50;;;;;;5087934;28;20534;-84
2021/04/15 01:12:26;;;;;;;3.70;2.90;;;22.00;48.50;;;;;;5083993;28;20425;-84
2021/04/15 01:15:24;;;;;;;3.83;3.07;;;22.00;48.50;;;;;;5085763;28;20440;-84
2021/04/15 01:17:57;;;;;;;3.67;2.90;;;22.00;48.50;;;;;;5068191;28;20420;-84
2021/04/15 01:21:16;;;;;;;2.50;2.30;;;22.00;48.60;;;;;;5061405;28;20949;-84
2021/04/15 01:24:01;;;;;;;3.10;2.50;;;22.00;48.60;;;;;;5034797;28;20426;-84
2021/04/15 01:26:38;;;;;;;4.07;3.17;;;22.00;48.70;;;;;;5020397;28;20436;-84
2021/04/15 01:29:13;;;;;;;3.63;2.70;;;22.00;48.70;;;;;;5037224;28;20457;-84
2021/04/15 01:31:54;;;;;;;3.70;2.50;;;22.00;48.70;;;;;;5052908;28;20417;-84
2021/04/15 01:34:27;;;;;;;4.17;2.90;;;22.00;48.70;;;;;;5058215;28;20413;-84
2021/04/15 01:37:01;;;;;;;3.53;2.77;;;21.90;48.60;;;;;;5051559;28;20457;-84
2021/04/15 01:39:43;;;;;;;3.33;2.37;;;22.00;48.60;;;;;;5072427;28;20472;-84
2021/04/15 01:42:16;;;;;;;3.80;2.63;;;22.00;48.50;;;;;;5057171;28;20898;-84
2021/04/15 01:44:41;;;;;;;2.50;2.30;;;22.00;48.50;;;;;;5070375;28;20424;-84
2021/04/15 01:47:20;;;;;;;3.33;2.37;;;22.00;48.50;;;;;;5068444;28;20424;-84
2021/04/15 01:49:49;;;;;;;2.67;2.20;;;22.00;48.40;;;;;;5055974;28;20270;-84
2021/04/15 01:52:16;;;;;;;3.23;2.73;;;22.00;48.30;;;;;;5062038;28;20433;-84
2021/04/15 01:55:11;;;;;;;2.90;2.10;;;22.00;48.30;;;;;;5055892;28;20453;-84
2021/04/15 01:57:49;;;;;;;3.77;2.57;;;22.10;48.30;;;;;;5053207;28;20421;-84
2021/04/15 02:00:21;;;;;;;3.13;2.20;;;22.10;48.30;;;;;;5036892;28;20486;-85
2021/04/15 02:03:12;;;;;;;2.60;1.93;;;22.10;48.40;;;;;;5053819;28;20432;-84
2021/04/15 02:05:43;;;;;;;2.20;1.87;;;22.10;48.30;;;;;;5041775;28;20426;-84
2021/04/15 02:08:22;;;;;;;3.00;2.60;;;22.10;48.30;;;;;;5040279;28;20955;-85
2021/04/15 02:10:58;;;;;;;1.90;1.63;;;22.10;48.30;;;;;;5045344;28;20434;-84
2021/04/15 02:13:26;;;;;;;3.00;2.37;;;22.10;48.30;;;;;;5069767;28;20416;-84
2021/04/15 02:16:01;;;;;;;2.63;1.90;;;22.10;48.30;;;;;;5066861;28;20424;-84
2021/04/15 02:18:52;;;;;;;3.33;2.10;;;22.10;48.20;;;;;;5047766;28;20425;-84
2021/04/15 02:21:47;;;;;;;3.13;2.30;;;22.10;48.20;;;;;;5061518;28;20480;-84
2021/04/15 02:24:39;;;;;;;3.07;2.77;;;22.10;48.20;;;;;;5052812;28;20792;-83
2021/04/15 02:30:33;;;;;;;4.33;2.93;;;22.10;48.20;;;;;;5077197;28;20431;-83
2021/04/15 02:33:13;;;;;;;3.50;2.37;;;22.00;48.20;;;;;;5083880;28;20420;-83
2021/04/15 02:35:54;;;;;;;3.30;2.80;;;22.10;48.20;;;;;;5083328;28;20420;-83
2021/04/15 02:38:55;;;;;;;2.97;2.00;;;22.10;48.20;;;;;;5083365;28;20415;-82
2021/04/15 02:41:32;;;;;;;2.27;1.97;;;22.10;48.30;;;;;;5079938;28;20427;-83
2021/04/15 02:44:07;;;;;;;2.50;2.10;;;22.00;48.30;;;;;;5084884;28;20841;-83
2021/04/15 02:47:01;;;;;;;2.87;2.30;;;22.00;48.30;;;;;;5084608;28;20449;-83
2021/04/15 02:49:30;;;;;;;2.30;2.00;;;22.00;48.30;;;;;;5061251;28;20463;-83
2021/04/15 02:52:18;;;;;;;3.20;2.30;;;22.00;48.40;;;;;;5070610;28;20413;-83
2021/04/15 02:54:52;;;;;;;2.90;2.17;;;22.00;48.30;;;;;;5071736;28;20408;-83
2021/04/15 02:57:26;;;;;;;2.17;1.93;;;22.00;48.40;;;;;;5062084;28;20416;-82
2021/04/15 02:59:57;;;;;;;2.40;2.20;;;21.90;48.30;;;;;;5074578;28;20462;-82
2021/04/15 03:02:31;;;;;;;2.60;2.03;;;22.00;48.40;;;;;;5070283;28;20431;-82
2021/04/15 03:05:24;;;;;;;3.30;2.20;;;21.90;48.30;;;;;;5068764;28;20438;-82
2021/04/15 03:07:54;;;;;;;3.20;2.50;;;21.90;48.30;;;;;;5068816;28;20488;-82
2021/04/15 03:10:28;;;;;;;2.70;2.30;;;21.90;48.40;;;;;;5068214;28;20420;-82
2021/04/15 03:13:12;;;;;;;2.60;2.40;;;21.90;48.30;;;;;;5081392;28;20417;-83
2021/04/15 03:15:44;;;;;;;3.23;2.30;;;21.90;48.30;;;;;;5083056;28;20422;-83
2021/04/15 03:18:17;;;;;;;3.00;2.70;;;21.90;48.40;;;;;;5080136;28;20409;-83
2021/04/15 03:20:49;;;;;;;2.90;1.90;;;21.90;48.40;;;;;;5065968;28;20467;-83
2021/04/15 03:23:43;;;;;;;2.87;2.23;;;21.90;49.00;;;;;;5067088;28;20771;-83
2021/04/15 03:26:42;;;;;;;2.90;2.13;;;21.90;48.40;;;;;;5079582;28;20460;-83
2021/04/15 03:29:33;;;;;;;3.40;2.13;;;21.90;48.40;;;;;;5065865;28;20464;-83
2021/04/15 03:32:07;;;;;;;3.40;2.13;;;21.80;48.40;;;;;;5071640;28;20429;-83
2021/04/15 03:34:42;;;;;;;3.93;2.67;;;21.80;48.50;;;;;;5084190;28;20485;-83
2021/04/15 03:37:14;;;;;;;3.47;2.20;;;21.90;48.50;;;;;;5066589;28;20404;-83
2021/04/15 03:39:40;;;;;;;2.80;2.27;;;21.80;48.50;;;;;;5071418;28;20420;-83
2021/04/15 03:42:22;;;;;;;2.87;2.00;;;21.80;48.50;;;;;;5085983;28;20420;-83
2021/04/15 03:44:52;;;;;;;3.30;2.27;;;21.90;48.50;;;;;;5084511;28;20416;-83
2021/04/15 03:47:25;;;;;;;2.57;2.13;;;21.80;48.50;;;;;;5070025;28;20476;-83
2021/04/15 03:49:58;;;;;;;2.60;2.40;;;21.80;48.50;;;;;;5073299;28;20528;-83
2021/04/15 03:52:35;;;;;;;2.50;2.03;;;21.80;48.50;;;;;;5075555;28;20970;-83
2021/04/15 03:55:29;;;;;;;2.10;1.90;;;21.80;48.50;;;;;;5091273;28;20413;-83
2021/04/15 03:58:01;;;;;;;3.80;2.43;;;21.80;48.50;;;;;;5077872;28;20419;-83
2021/04/15 04:00:34;;;;;;;3.07;2.00;;;21.80;48.60;;;;;;5082143;28;20778;-83
2021/04/15 04:03:06;;;;;;;3.07;2.50;;;21.80;48.60;;;;;;5086561;28;20409;-83
2021/04/15 04:05:44;;;;;;;2.53;2.23;;;21.70;48.60;;;;;;5081579;28;20424;-85
2021/04/15 04:08:18;;;;;;;2.70;1.97;;;21.70;48.60;;;;;;5083463;28;20436;-84
2021/04/15 04:10:45;;;;;;;3.50;3.13;;;21.70;48.60;;;;;;5069057;28;20428;-84
2021/04/15 04:13:36;;;;;;;2.80;2.10;;;21.70;48.70;;;;;;5083275;28;20443;-84
2021/04/15 04:16:26;;;;;;;3.07;2.03;;;21.70;48.70;;;;;;5067316;28;20961;-84
2021/04/15 04:19:14;;;;;;;2.00;1.70;;;21.70;48.70;;;;;;5061982;28;20795;-85
2021/04/15 04:21:45;;;;;;;2.20;2.00;;;21.70;48.70;;;;;;5066271;28;20798;-84
2021/04/15 04:24:29;;;;;;;3.10;1.80;;;21.60;48.70;;;;;;5076329;28;20424;-84
2021/04/15 04:27:03;;;;;;;2.50;2.00;;;21.70;48.80;;;;;;5084837;28;20420;-84
2021/04/15 04:29:32;;;;;;;2.40;2.20;;;21.60;48.70;;;;;;5078581;28;20460;-83
2021/04/15 04:32:02;;;;;;;2.90;2.10;;;21.60;48.70;;;;;;5108254;28;20468;-84
2021/04/15 04:34:32;;;;;;;2.97;2.33;;;21.60;48.70;;;;;;5068853;28;20413;-84
2021/04/15 04:37:00;;;;;;;2.57;1.83;;;21.60;48.70;;;;;;5069951;28;20413;-84
2021/04/15 04:39:27;;;;;;;3.00;2.53;;;21.60;48.70;;;;;;5090951;28;20440;-83
2021/04/15 04:42:27;;;;;;;2.57;2.10;;;21.60;48.70;;;;;;5071832;28;20416;-85
2021/04/15 04:44:56;;;;;;;2.53;2.27;;;21.70;48.70;;;;;;5101003;22;20437;-84
2021/04/15 04:47:44;;;;;;;2.03;1.83;;;21.60;48.70;;;;;;5073831;28;20436;-84
2021/04/15 04:50:45;;;;;;;2.70;1.80;;;21.70;48.70;;;;;;5088799;28;20454;-84
2021/04/15 04:53:30;;;;;;;2.10;1.90;;;21.70;48.60;;;;;;5091650;28;20472;-84
2021/04/15 04:56:08;;;;;;;3.20;1.70;;;21.60;48.50;;;;;;5071519;28;20400;-84
2021/04/15 04:58:36;;;;;;;2.40;2.20;;;21.70;48.50;;;;;;5087211;28;20434;-84
2021/04/15 05:01:03;;;;;;;2.83;2.17;;;21.80;48.50;;;;;;5070316;28;20424;-84
2021/04/15 05:03:31;;;;;;;2.10;1.77;;;21.80;48.40;;;;;;5069691;28;20413;-84
2021/04/15 05:06:20;;;;;;;1.83;1.63;;;21.80;48.30;;;;;;5087471;28;20404;-84
2021/04/15 05:09:27;;;;;;;2.23;1.70;;;21.80;48.20;;;;;;5087182;28;20802;-84
2021/04/15 05:11:54;;;;;;;2.90;1.93;;;21.90;48.20;;;;;;5086610;28;20412;-85
2021/04/15 05:14:23;;;;;;;2.20;1.70;;;21.80;48.10;;;;;;5085486;28;20902;-84
2021/04/15 05:17:19;;;;;;;2.10;1.90;;;21.80;48.10;;;;;;5068787;28;20417;-85
2021/04/15 05:19:45;;;;;;;3.13;1.77;;;21.90;48.10;;;;;;5069335;28;20401;-84
2021/04/15 05:22:20;;;;;;;3.70;2.27;;;21.80;48.00;;;;;;5085727;28;20450;-84
2021/04/15 05:24:54;;;;;;;3.17;2.00;;;21.90;47.90;;;;;;5069118;28;20163;-85
2021/04/15 05:27:21;;;;;;;3.77;2.23;;;21.90;47.80;;;;;;5068295;28;20415;-84
2021/04/15 05:29:50;;;;;;;2.90;2.13;;;21.90;47.80;;;;;;5068060;28;20506;-84
2021/04/15 05:32:18;;;;;;;4.23;2.03;;;21.90;47.80;;;;;;5086124;28;20409;-84
2021/04/15 05:34:49;;;;;;;2.77;1.87;;;21.90;47.80;;;;;;5071309;28;20419;-84
2021/04/15 05:43:53;;;;;;;5.70;2.40;;;21.90;47.80;;;;;;5087286;28;20464;-89
2021/04/15 05:53:07;;;;;;;3.40;2.40;;;21.90;47.80;;;;;;5074821;28;20428;-83
2021/04/15 05:55:50;;;;;;;2.80;2.07;;;21.90;47.90;;;;;;5065175;28;20405;-84
2021/04/15 06:01:07;;;;;;;4.27;2.07;;;22.00;48.00;;;;;;5097590;22;20476;-82
2021/04/15 06:04:02;;;;;;;3.40;2.13;;;21.90;47.90;;;;;;5088432;28;20428;-84
2021/04/15 06:06:37;;;;;;;2.60;1.90;;;22.00;48.30;;;;;;5088608;28;20503;-84
2021/04/15 06:09:07;;;;;;;3.10;2.20;;;22.00;48.30;;;;;;5065726;28;20465;-87
2021/04/15 06:11:58;;;;;;;2.73;1.90;;;22.00;48.30;;;;;;5067654;28;20466;-88
2021/04/15 06:14:38;;;;;;;3.73;2.20;;;22.10;48.40;;;;;;5089112;28;20411;-87
2021/04/15 06:17:55;;;;;;;3.07;2.07;;;22.10;48.30;;;;;;5090262;28;20787;-87
2021/04/15 06:20:27;;;;;;;4.70;2.07;;;22.10;48.20;;;;;;5070831;28;20415;-87
2021/04/15 06:22:57;;;;;;;2.33;1.73;;;22.20;48.30;;;;;;5105754;28;20396;-87
2021/04/15 06:25:30;;;;;;;2.90;1.77;;;22.20;48.30;;;;;;5104878;28;20911;-88
2021/04/15 06:28:02;;;;;;;3.10;1.90;;;22.20;48.30;;;;;;5094420;28;20420;-86
2021/04/15 06:30:57;;;;;;;3.03;1.77;;;22.30;48.30;;;;;;5072390;28;20432;-86
2021/04/15 06:33:27;;;;;;;2.70;1.70;;;22.30;48.30;;;;;;5096381;28;20492;-86
2021/04/15 06:35:59;;;;;;;2.90;2.00;;;22.30;48.30;;;;;;5076130;28;20419;-86
2021/04/15 06:38:36;;;;;;;2.53;2.13;;;22.30;48.20;;;;;;5088110;28;20381;-88
2021/04/15 06:41:26;;;;;;;2.53;1.70;;;22.40;48.20;;;;;;5082689;28;20414;-89
2021/04/15 06:44:13;;;;;;;2.80;1.90;;;22.40;48.20;;;;;;5068541;28;20406;-85
2021/04/15 06:46:44;;;;;;;2.87;2.07;;;22.40;48.20;;;;;;5066677;28;20404;-84
2021/04/15 06:49:25;;;;;;;2.33;1.60;;;22.40;48.20;;;;;;5067361;28;20449;-86
2021/04/15 06:52:04;;;;;;;2.93;1.87;;;22.40;48.20;;;;;;5066351;28;20413;-86
2021/04/15 06:54:50;;;;;;;2.93;2.33;;;22.40;48.20;;;;;;5065687;28;20440;-86
2021/04/15 06:58:01;;;;;;;4.37;1.90;;;22.40;48.10;;;;;;5067208;28;20404;-86
2021/04/15 07:00:38;;;;;;;2.33;1.70;;;22.50;48.20;;;;;;5068195;28;20457;-87
2021/04/15 07:03:35;;;;;;;3.13;2.10;;;22.40;48.20;;;;;;5068328;28;20394;-86
2021/04/15 07:06:12;;;;;;;2.13;1.70;;;22.50;48.20;;;;;;5050391;28;20430;-86
2021/04/15 07:08:59;;;;;;;2.70;1.70;;;22.40;48.10;;;;;;5049805;28;20491;-84
2021/04/15 07:11:57;;;;;;;2.40;1.87;;;22.50;48.20;;;;;;5049761;28;20457;-86
2021/04/15 07:15:04;;;;;;;2.70;1.73;;;22.50;48.20;;;;;;5072539;28;20407;-86
2021/04/15 07:18:02;;;;;;;2.57;1.97;;;22.50;48.20;;;;;;5061178;28;20413;-87
2021/04/15 07:20:54;;;;;;;2.40;1.70;;;22.50;48.30;;;;;;5053190;28;20417;-86
2021/04/15 07:23:21;;;;;;;3.63;1.80;;;22.40;48.30;;;;;;5062592;28;20414;-87
2021/04/15 07:33:11;;;;;;;1.83;1.63;;;22.40;48.50;;;;;;5023852;28;20414;-86
2021/04/15 07:36:14;;;;;;;3.90;2.40;;;22.40;48.50;;;;;;5007230;28;20430;-86
2021/04/15 07:39:04;;;;;;;2.47;1.87;;;22.40;48.50;;;;;;5008395;28;20418;-85
2021/04/15 07:41:49;;;;;;;2.73;1.70;;;22.30;48.60;;;;;;5006744;28;20553;-86
2021/04/15 07:44:45;;;;;;;3.43;1.90;;;22.30;48.60;;;;;;5023300;28;20862;-86
2021/04/15 07:47:38;;;;;;;2.37;1.67;;;22.30;48.50;;;;;;5023912;28;20933;-85
2021/04/15 07:50:07;;;;;;;2.30;1.80;;;22.30;48.50;;;;;;5006670;28;21028;-86
2021/04/15 07:52:54;;;;;;;3.43;2.03;;;22.30;48.50;;;;;;5007303;28;20424;-85
2021/04/15 07:55:54;;;;;;;2.30;1.70;;;22.30;48.40;;;;;;5007484;28;20412;-87
2021/04/15 07:58:59;;;;;;;2.10;1.60;;;22.30;48.30;;;;;;5006933;28;20771;-85
2021/04/15 08:02:05;;;;;;;2.33;1.90;;;22.30;48.30;;;;;;5046848;28;20429;-86
2021/04/15 08:04:46;;;;;;;3.00;2.10;;;22.30;48.30;;;;;;5046756;28;20418;-86
2021/04/15 08:07:36;;;;;;;2.60;2.37;;;22.30;48.40;;;;;;5046208;28;20448;-85
2021/04/15 08:10:24;;;;;;;1.57;1.40;;;22.30;48.30;;;;;;5047417;28;20452;-86
2021/04/15 08:13:18;;;;;;;5.40;2.37;;;22.30;48.30;;;;;;5052920;28;20440;-86
2021/04/15 08:16:23;;;;;;;2.53;1.70;;;22.30;48.20;;;;;;5072217;28;20839;-85
2021/04/15 08:19:01;;;;;;;3.70;1.80;;;22.30;48.20;;;;;;5050572;28;20481;-86
2021/04/15 08:21:34;;;;;;;3.23;1.90;;;22.20;48.70;;;;;;5054254;28;20405;-86
2021/04/15 08:24:30;;;;;;;4.20;2.20;;;22.20;48.10;;;;;;5055035;28;20439;-87
2021/04/15 08:27:31;;;;;;;2.20;1.53;;;22.30;48.10;;;;;;5099569;28;20428;-86
2021/04/15 08:30:16;;;;;;;2.67;1.83;;;22.20;48.10;;;;;;5069936;28;20464;-86
2021/04/15 08:33:09;;;;;;;2.30;1.57;;;22.30;48.20;;;;;;5068695;28;20424;-86
2021/04/15 08:35:59;;;;;;;2.13;1.37;;;22.30;48.10;;;;;;5093442;28;20429;-87
2021/04/15 08:38:48;;;;;;;2.20;1.63;;;22.20;48.00;;;;;;5084327;28;20423;-86
2021/04/15 08:41:20;;;;;;;1.77;1.37;;;22.20;48.00;;;;;;5062584;28;20450;-86
2021/04/15 08:44:08;;;;;;;1.83;1.27;;;22.20;48.10;;;;;;5063960;28;20519;-86
2021/04/15 08:47:09;;;;;;;2.53;1.40;;;22.20;48.00;;;;;;5062593;28;20435;-86
2021/04/15 08:50:00;;;;;;;1.90;1.40;;;22.20;48.00;;;;;;4966153;28;20465;-86
2021/04/15 08:52:44;;;;;;;2.00;1.50;;;22.20;48.10;;;;;;4961341;28;20429;-87
2021/04/15 08:55:22;;;;;;;2.03;1.77;;;22.20;48.10;;;;;;4985175;28;20419;-85
2021/04/15 08:58:27;;;;;;;1.70;1.40;;;22.20;48.10;;;;;;4985467;28;20404;-85
2021/04/15 09:01:02;;;;;;;1.53;1.20;;;22.20;48.00;;;;;;4976209;28;20476;-85
2021/04/15 09:03:39;;;;;;;3.00;1.40;;;22.20;48.10;;;;;;4947675;29;20417;-85
2021/04/15 09:06:48;;;;;;;2.13;1.40;;;22.20;48.10;;;;;;4959397;29;20430;-86
2021/04/15 09:09:54;;;;;;;3.40;1.60;;;22.20;48.00;;;;;;4959702;29;20469;-86
2021/04/15 09:12:42;;;;;;;3.50;1.40;;;22.20;48.10;;;;;;4959427;29;20739;-86
2021/04/15 09:15:25;;;;;;;4.80;1.70;;;22.20;48.10;;;;;;4963166;29;20883;-86
2021/04/15 09:18:00;;;;;;;1.87;1.43;;;22.20;48.10;;;;;;4966872;28;20418;-83
2021/04/15 09:20:40;;;;;;;2.50;1.50;;;22.20;48.10;;;;;;4962315;28;20429;-84
2021/04/15 09:23:43;;;;;;;3.10;2.80;;;22.20;48.10;;;;;;4963590;29;20551;-84
2021/04/15 09:26:44;;;;;;;2.13;1.60;;;22.20;48.00;;;;;;5055417;28;20453;-85
2021/04/15 09:29:33;;;;;;;2.33;1.70;;;22.20;48.00;;;;;;5062460;28;20453;-85
2021/04/15 09:32:17;;;;;;;3.57;1.70;;;22.20;48.10;;;;;;5007113;28;20410;-86
2021/04/15 09:34:55;;;;;;;3.37;1.73;;;22.20;48.20;;;;;;5065756;28;20420;-86
2021/04/15 09:38:05;;;;;;;2.23;1.60;;;22.20;48.40;;;;;;5047856;28;21020;-86
2021/04/15 09:41:06;;;;;;;1.53;1.43;;;22.20;48.40;;;;;;4997730;28;20429;-85
2021/04/15 09:43:38;;;;;;;2.40;1.60;;;22.20;48.50;;;;;;5047191;28;20448;-86
2021/04/15 09:46:22;;;;;;;2.50;1.60;;;22.20;48.50;;;;;;5065902;28;20429;-86
2021/04/15 09:49:15;;;;;;;2.80;1.67;;;22.30;48.60;;;;;;5063835;28;20464;-86
2021/04/15 09:52:02;;;;;;;2.70;1.80;;;22.20;48.50;;;;;;5040383;28;20472;-86
2021/04/15 09:55:00;;;;;;;2.40;1.77;;;22.20;48.60;;;;;;5046092;28;20417;-88
2021/04/15 09:57:47;;;;;;;2.40;1.80;;;22.30;48.60;;;;;;5030565;28;20398;-86
2021/04/15 10:00:27;;;;;;;2.53;1.70;;;22.20;48.60;;;;;;5068434;28;20424;-85
2021/04/15 10:03:08;;;;;;;2.97;2.00;;;22.20;48.60;;;;;;5067370;28;20420;-86
2021/04/15 10:06:16;;;;;;;5.23;1.67;;;22.30;48.70;;;;;;5084309;28;20400;-86
2021/04/15 10:08:56;;;;;;;2.07;1.67;;;22.20;48.50;;;;;;5066619;28;20486;-86
2021/04/15 10:11:56;;;;;;;2.30;1.80;;;22.20;48.60;;;;;;5065727;28;20486;-86
2021/04/15 10:14:41;;;;;;;2.50;1.63;;;22.20;48.50;;;;;;5066283;28;20419;-86
2021/04/15 10:17:22;;;;;;;2.13;1.70;;;22.20;48.60;;;;;;5065548;28;20424;-86
2021/04/15 10:20:14;;;;;;;4.80;2.30;;;22.20;48.50;;;;;;5065884;28;20416;-86
2021/04/15 10:23:10;;;;;;;3.10;1.87;;;22.20;48.50;;;;;;5066124;28;20488;-87
2021/04/15 10:25:55;;;;;;;3.80;2.23;;;22.20;48.50;;;;;;5067403;28;20403;-87
2021/04/15 10:28:55;;;;;;;5.37;2.47;;;22.20;48.60;;;;;;5067010;28;20420;-90
2021/04/15 10:31:45;;;;;;;3.90;2.03;;;22.20;48.50;;;;;;5068281;28;20412;-87
2021/04/15 10:34:23;;;;;;;7.20;2.70;;;22.20;48.50;;;;;;5071814;28;20405;-88
2021/04/15 10:37:26;;;;;;;6.60;2.60;;;22.20;48.60;;;;;;5071329;28;20458;-88
2021/04/15 10:40:01;;;;;;;6.03;2.33;;;22.20;48.60;;;;;;5071934;28;20440;-86
2021/04/15 10:43:08;;;;;;;3.27;2.00;;;22.20;48.60;;;;;;5071292;28;20423;-86
2021/04/15 10:45:54;;;;;;;2.93;1.80;;;22.10;48.50;;;;;;5071122;28;20503;-87
2021/04/15 10:48:39;;;;;;;4.27;2.20;;;22.20;48.60;;;;;;5071462;28;20419;-86
2021/04/15 10:51:13;;;;;;;4.70;2.20;;;22.20;48.70;;;;;;5089408;28;20479;-87
2021/04/15 10:53:56;;;;;;;4.67;2.13;;;22.20;48.80;;;;;;5071012;28;20495;-87
2021/04/15 10:56:25;;;;;;;5.97;2.33;;;22.20;48.70;;;;;;5088418;28;20396;-86
2021/04/15 10:58:59;;;;;;;6.97;2.90;;;22.30;48.80;;;;;;5088457;28;20444;-87
2021/04/15 11:01:37;;;;;;;3.83;2.30;;;22.30;48.80;;;;;;5070812;28;20466;-87
2021/04/15 11:04:26;;;;;;;7.03;2.20;;;22.30;48.70;;;;;;5087978;28;20466;-86
2021/04/15 11:07:11;;;;;;;3.40;2.13;;;22.40;48.80;;;;;;5088620;28;20397;-86
2021/04/15 11:09:43;;;;;;;2.63;1.90;;;22.40;48.70;;;;;;5070614;28;20464;-86
2021/04/15 11:12:15;;;;;;;7.50;2.30;;;22.40;48.70;;;;;;5070669;28;20401;-87
2021/04/15 11:14:44;;;;;;;4.07;2.63;;;22.40;48.70;;;;;;5071291;28;20419;-86
2021/04/15 11:17:30;;;;;;;4.53;2.00;;;22.40;48.70;;;;;;5071840;28;20412;-85
2021/04/15 11:20:27;;;;;;;3.30;2.33;;;22.40;48.60;;;;;;5088522;28;20761;-86
2021/04/15 11:23:07;;;;;;;3.30;2.20;;;22.50;48.70;;;;;;5088116;28;20443;-86
2021/04/15 11:25:48;;;;;;;5.20;2.43;;;22.50;48.70;;;;;;5071807;28;20413;-86
2021/04/15 11:28:23;;;;;;;3.20;2.07;;;22.50;48.70;;;;;;5070345;28;20404;-85
2021/04/15 11:30:51;;;;;;;3.97;2.70;;;22.50;48.70;;;;;;5069356;28;20527;-86
2021/04/15 11:33:40;;;;;;;3.00;2.20;;;22.50;48.70;;;;;;5070109;28;20776;-86
2021/04/15 11:36:26;;;;;;;3.80;2.20;;;22.50;49.20;;;;;;5070360;28;20413;-85
2021/04/15 11:39:06;;;;;;;3.50;2.30;;;22.50;48.70;;;;;;5056020;28;20417;-86
2021/04/15 11:41:41;;;;;;;4.00;2.00;;;22.50;48.70;;;;;;5071717;28;20718;-85
2021/04/15 11:44:21;;;;;;;3.43;2.03;;;22.50;48.60;;;;;;5071051;28;20412;-86
2021/04/15 11:46:46;;;;;;;3.60;2.87;;;22.50;48.60;;;;;;5071367;28;20408;-85
2021/04/15 11:49:23;;;;;;;5.00;2.67;;;22.50;48.70;;;;;;5069875;28;20455;-86
2021/04/15 11:52:07;;;;;;;3.30;2.57;;;22.50;48.60;;;;;;5070025;28;20265;-83
2021/04/15 11:54:40;;;;;;;4.30;3.23;;;22.60;48.70;;;;;;5071124;28;20411;-84
2021/04/15 11:57:30;;;;;;;6.10;4.50;;;22.60;48.70;;;;;;5071421;28;20414;-85
2021/04/15 11:59:56;;;;;;;24.37;7.80;;;22.60;48.60;;;;;;5071056;28;20405;-85
2021/04/15 12:02:31;;;;;;;19.90;9.00;;;22.60;48.70;;;;;;5053296;28;20954;-85
2021/04/15 12:05:37;;;;;;;26.93;11.10;;;22.50;48.60;;;;;;5051323;28;20187;-85
2021/04/15 12:08:40;;;;;;;33.37;13.97;;;22.50;48.60;;;;;;5050030;28;20397;-85
2021/04/15 12:11:18;;;;;;;33.03;15.77;;;22.50;48.60;;;;;;5028565;28;20444;-85
2021/04/15 12:13:57;;;;;;;30.10;17.10;;;22.50;48.70;;;;;;5068676;28;20398;-84
2021/04/15 12:17:00;;;;;;;36.47;20.27;;;22.50;48.70;;;;;;5048578;28;20496;-84
2021/04/15 12:19:46;;;;;;;38.83;21.67;;;22.50;48.70;;;;;;5048544;28;20823;-84
2021/04/15 12:22:52;;;;;;;50.50;24.63;;;22.50;48.80;;;;;;5048895;28;20448;-84
2021/04/15 12:25:31;;;;;;;43.50;24.60;;;22.50;48.80;;;;;;5048793;28;20435;-85
2021/04/15 12:28:24;;;;;;;31.63;19.77;;;22.40;48.70;;;;;;5049010;28;20414;-84
2021/04/15 12:30:58;;;;;;;48.43;27.70;;;22.40;48.70;;;;;;5048957;28;20425;-83
2021/04/15 12:33:30;;;;;;;57.43;26.07;;;22.40;48.80;;;;;;5049658;28;20433;-83
2021/04/15 12:36:03;;;;;;;62.07;31.30;;;22.40;48.80;;;;;;5048825;28;20401;-83
2021/04/15 12:38:37;;;;;;;70.13;31.40;;;22.40;48.80;;;;;;5066003;28;20390;-85
2021/04/15 12:41:07;;;;;;;58.57;31.27;;;22.40;48.80;;;;;;5049128;28;20417;-85
2021/04/15 12:43:38;;;;;;;67.10;34.60;;;22.40;48.80;;;;;;5047880;28;20754;-85
2021/04/15 12:46:14;;;;;;;74.30;34.10;;;22.40;48.80;;;;;;5065643;28;20382;-84
2021/04/15 12:48:45;;;;;;;76.17;34.73;;;22.40;48.80;;;;;;5048032;28;20453;-84
2021/04/15 12:51:18;;;;;;;91.40;41.60;;;22.40;48.80;;;;;;5047152;28;20439;-84
2021/04/15 12:53:47;;;;;;;64.33;35.50;;;22.40;48.80;;;;;;5064651;28;20402;-84
2021/04/15 12:56:19;;;;;;;75.67;36.80;;;22.40;48.80;;;;;;5065351;28;20410;-84
2021/04/15 12:58:45;;;;;;;78.90;35.27;;;22.40;48.80;;;;;;5048597;28;20418;-84
2021/04/15 13:01:12;;;;;;;81.97;35.33;;;22.40;48.80;;;;;;5048294;28;20441;-83
2021/04/15 13:03:45;;;;;;;79.50;37.50;;;22.40;48.80;;;;;;5050134;28;20418;-83
2021/04/15 13:06:15;;;;;;;75.03;35.77;;;22.40;48.80;;;;;;5048210;28;20462;-84
2021/04/15 13:08:48;;;;;;;81.10;39.27;;;22.40;48.80;;;;;;5047063;28;20494;-84
2021/04/15 13:11:20;;;;;;;76.70;40.83;;;22.40;48.80;;;;;;5047732;28;20405;-84
2021/04/15 13:13:55;;;;;;;70.93;38.10;;;22.40;48.90;;;;;;5065839;28;20401;-84
2021/04/15 13:16:39;;;;;;;81.13;39.97;;;22.40;48.80;;;;;;5048199;28;20440;-83
2021/04/15 13:19:11;;;;;;;56.43;36.00;;;22.40;48.80;;;;;;5047207;28;20417;-85
2021/04/15 13:21:56;;;;;;;61.40;33.97;;;22.40;48.80;;;;;;5065028;28;20402;-85
2021/04/15 13:24:43;;;;;;;80.07;38.80;;;22.30;48.70;;;;;;5046484;28;20414;-85
2021/04/15 13:27:32;;;;;;;73.43;38.67;;;22.60;48.90;;;;;;5065248;28;20413;-84
2021/04/15 13:30:22;;;;;;;70.93;36.47;;;22.30;48.70;;;;;;5009087;28;20464;-84
2021/04/15 13:33:09;;;;;;;75.77;37.43;;;22.30;48.80;;;;;;5047627;28;20452;-85
2021/04/15 13:35:47;;;;;;;62.50;35.60;;;22.30;48.80;;;;;;5051209;28;20405;-85
2021/04/15 13:38:34;;;;;;;61.73;34.70;;;22.30;48.90;;;;;;5053834;28;20417;-84
2021/04/15 13:41:14;;;;;;;76.27;35.60;;;22.30;49.00;;;;;;5052366;28;20409;-84
2021/04/15 13:43:48;;;;;;;75.23;35.20;;;22.30;48.90;;;;;;5054516;28;20417;-83
2021/04/15 13:46:24;;;;;;;62.60;34.90;;;22.30;49.00;;;;;;5056674;28;20472;-84
2021/04/15 13:49:02;;;;;;;63.37;35.37;;;22.30;49.00;;;;;;5055750;28;20529;-85
2021/04/15 13:51:56;;;;;;;62.83;34.13;;;22.30;49.00;;;;;;5057469;28;20429;-84
2021/04/15 13:54:47;;;;;;;74.50;37.43;;;22.40;49.00;;;;;;5071298;28;20482;-84
2021/04/15 13:57:19;;;;;;;61.00;35.83;;;22.30;49.00;;;;;;5055523;28;20451;-84
2021/04/15 13:59:54;;;;;;;61.57;34.43;;;22.30;49.00;;;;;;5055974;28;20410;-84
2021/04/15 14:02:26;;;;;;;73.97;35.87;;;22.30;49.00;;;;;;5058556;28;20459;-83
2021/04/15 14:04:56;;;;;;;65.40;34.93;;;22.30;49.00;;;;;;5056624;28;20401;-83
2021/04/15 14:07:32;;;;;;;73.67;33.57;;;22.30;49.00;;;;;;5078642;28;20444;-84
2021/04/15 14:10:16;;;;;;;53.47;33.60;;;22.30;49.00;;;;;;5054526;28;20478;-84
2021/04/15 14:12:58;;;;;;;62.67;35.60;;;22.30;49.00;;;;;;5055373;28;20485;-84
2021/04/15 14:15:33;;;;;;;68.23;33.27;;;22.30;49.00;;;;;;5055866;28;20406;-84
2021/04/15 14:18:38;;;;;;;62.13;34.50;;;22.30;49.00;;;;;;5054251;28;20429;-84